Airfield :
LOGIN :

Register | Disclaimer

   EN    FR    IT 

 










Legend :    VFR   Marginal VFR   IFR   Intensive IFR   Very Intensive IFR
Visi :
Ceiling :
>= 8 km
>= 3000ft
5 to 8 km
1000 to 3000 ft
1500m to 5 km
500 to 1000 ft
800 to 1500m
200 to 500 ft
< 800m
< 200 ft
Symbols :   Thunderstorms  Fog  Heavy snow  Heavy precipitations  Wind > 20 kt
SIGMETs :     Misc.  Thunderstorms  Icing  Turbulence  Mountain Waves  Volcanic Ashes







- Airport Elevation : 1090 ft
- IATA code : CFE
- Download approach charts


LFLC - Clermont-Ferrand Auvergne

CURRENT METAR :
  • 161730Z AUTO 26010KT CAVOK 30/14 Q1013 NOSIG

EXPIRED METARs :
  • 161700Z AUTO 27009KT CAVOK 30/14 Q1013 NOSIG
  • 161630Z AUTO 27005KT 200V300 CAVOK 31/14 Q1013 NOSIG
  • 161600Z AUTO 03005KT 330V060 CAVOK 31/14 Q1013 NOSIG
  • 161530Z AUTO VRB02KT CAVOK 31/15 Q1013 NOSIG
  • 161500Z AUTO 05006KT 010V080 CAVOK 31/16 Q1013 NOSIG
  • 161430Z AUTO 07005KT 330V110 CAVOK 31/14 Q1014 NOSIG

TAF TAF LFLC
Valid from the 16 at 15:00 until the 17 at 15:00 UTC


161400Z 1615/1715 08006KT CAVOK
PROB40
TEMPO 1616/1621 FEW075
BECMG 1618/1621 VRB03KT
PROB40
TEMPO 1704/1707 -TSRA SCT035 BKN065CB
BECMG 1704/1706 36008G18KT SCT070TCU
TEMPO 1710/1715 4000 -TSRA BKN017 BKN035CB
ATIS : +33 4 73 62 74 38
No reported NOTAMs for that airfield.



MET'MAP, your aeronautical weather chart ! - Copyright ORBIFLY December 2007 - Disclaimer

ORBIFLY MET'MAP TEAM :

Programming & Development : Alexandra Zaïnal
Concept & Development : Baudouin d'Aumeries
Co-Development & Prog : Marc-Olivier Méhu
Technical & hardware support : Manuel Goepfert

Contact : metmap@orbifly.com




SOURCES & CREDITS :

   NOAA